createdAt,value
2018-11-06T00:02:10.587Z,6.50
2018-11-06T00:04:45.630Z,6.50
2018-11-06T00:07:17.358Z,6.50
2018-11-06T00:09:46.865Z,6.50
2018-11-06T00:12:15.812Z,6.50
2018-11-06T00:14:45.002Z,6.40
2018-11-06T00:17:13.861Z,6.50
2018-11-06T00:19:42.731Z,6.50
2018-11-06T00:22:11.649Z,6.50
2018-11-06T00:24:40.515Z,6.50
2018-11-06T00:27:09.448Z,6.50
2018-11-06T00:29:38.400Z,6.20
2018-11-06T00:32:07.298Z,6.20
2018-11-06T00:34:36.225Z,6.20
2018-11-06T00:37:06.136Z,6.20
2018-11-06T00:39:35.005Z,6.20
2018-11-06T00:42:07.778Z,6.20
2018-11-06T00:44:36.659Z,6.20
2018-11-06T00:47:05.663Z,6.10
2018-11-06T00:49:34.494Z,6.10
2018-11-06T00:52:04.400Z,6.10
2018-11-06T00:54:37.172Z,6.00
2018-11-06T00:57:06.998Z,6.00
2018-11-06T00:59:35.816Z,6.00
2018-11-06T01:02:04.750Z,6.00
2018-11-06T01:04:35.094Z,6.10
2018-11-06T01:07:04.262Z,6.10
2018-11-06T01:09:33.146Z,6.00
2018-11-06T01:12:05.161Z,5.70
2018-11-06T01:14:34.039Z,5.80
2018-11-06T01:17:02.956Z,5.80
2018-11-06T01:19:31.825Z,5.70
2018-11-06T01:22:00.724Z,5.60
2018-11-06T01:24:29.558Z,5.70
2018-11-06T01:26:58.464Z,5.70
2018-11-06T01:29:28.293Z,5.80
2018-11-06T01:31:57.629Z,5.90
2018-11-06T01:34:26.518Z,5.90
2018-11-06T01:36:55.390Z,5.90
2018-11-06T01:39:24.306Z,5.90
2018-11-06T01:41:53.770Z,5.90
2018-11-06T01:44:22.621Z,5.80
2018-11-06T01:46:52.393Z,5.60
2018-11-06T01:49:21.294Z,5.70
2018-11-06T01:51:50.172Z,5.70
2018-11-06T01:54:20.476Z,5.70
2018-11-06T01:56:49.615Z,5.80
2018-11-06T01:59:18.441Z,5.90
2018-11-06T02:01:47.990Z,5.70
2018-11-06T02:04:16.923Z,6.00
2018-11-06T02:06:45.802Z,6.10
2018-11-06T02:09:14.877Z,6.20
2018-11-06T02:11:43.740Z,6.20
2018-11-06T02:14:12.572Z,6.10
2018-11-06T02:16:42.232Z,6.10
2018-11-06T02:19:11.100Z,6.00
2018-11-06T02:21:40.592Z,6.00
2018-11-06T02:24:09.447Z,5.80
2018-11-06T02:26:38.813Z,5.80
2018-11-06T02:29:07.785Z,5.80
2018-11-06T02:31:38.163Z,5.80
2018-11-06T02:34:07.129Z,5.80
2018-11-06T02:36:37.146Z,5.70
2018-11-06T02:39:09.343Z,5.80
2018-11-06T02:41:39.287Z,5.80
2018-11-06T02:44:12.513Z,5.90
2018-11-06T02:46:41.352Z,5.90
2018-11-06T02:49:10.225Z,6.00
2018-11-06T02:51:39.449Z,6.00
2018-11-06T02:54:08.916Z,6.00
2018-11-06T02:56:41.774Z,5.80
2018-11-06T02:59:11.309Z,5.80
2018-11-06T03:01:40.780Z,5.70
2018-11-06T03:04:09.780Z,5.60
2018-11-06T03:06:38.693Z,5.60
2018-11-06T03:09:08.455Z,5.70
2018-11-06T03:11:37.446Z,5.60
2018-11-06T03:14:06.565Z,5.60
2018-11-06T03:16:35.516Z,5.60
2018-11-06T03:19:06.631Z,5.60
2018-11-06T03:21:35.504Z,5.50
2018-11-06T03:24:05.659Z,5.40
2018-11-06T03:26:34.744Z,5.40
2018-11-06T03:29:04.260Z,5.40
2018-11-06T03:31:33.567Z,5.40
2018-11-06T03:34:04.435Z,5.40
2018-11-06T03:36:34.118Z,5.50
2018-11-06T03:39:03.920Z,5.50
2018-11-06T03:41:34.046Z,5.50
2018-11-06T03:44:02.889Z,5.50
2018-11-06T03:46:31.740Z,5.50
2018-11-06T03:49:01.005Z,5.50
2018-11-06T03:51:30.076Z,5.50
2018-11-06T03:53:58.959Z,5.40
2018-11-06T03:56:27.795Z,5.50
2018-11-06T03:58:56.626Z,5.50
2018-11-06T04:01:25.504Z,5.50
2018-11-06T04:03:54.321Z,5.50
2018-11-06T04:06:23.171Z,5.50
2018-11-06T04:08:52.990Z,5.40
2018-11-06T04:11:21.833Z,5.30
2018-11-06T04:13:53.245Z,5.40
2018-11-06T04:16:22.203Z,5.30
2018-11-06T04:18:51.357Z,5.30
2018-11-06T04:21:30.749Z,5.30
2018-11-06T04:24:00.229Z,5.30
2018-11-06T04:26:31.631Z,5.40
2018-11-06T04:29:00.950Z,5.40
2018-11-06T04:31:29.751Z,5.30
2018-11-06T04:34:00.715Z,5.40
2018-11-06T04:36:29.956Z,5.20
2018-11-06T04:38:59.218Z,5.20
2018-11-06T04:41:28.903Z,5.40
2018-11-06T04:43:58.390Z,5.50
2018-11-06T04:46:27.790Z,5.40
2018-11-06T04:48:57.547Z,5.40
2018-11-06T04:51:27.432Z,5.40
2018-11-06T04:53:58.637Z,5.40
2018-11-06T04:56:28.234Z,5.30
2018-11-06T04:58:57.183Z,5.30
2018-11-06T05:01:27.007Z,5.40
2018-11-06T05:03:59.019Z,5.40
2018-11-06T05:06:28.458Z,5.30
2018-11-06T05:08:57.377Z,5.30
2018-11-06T05:11:26.251Z,5.30
2018-11-06T05:13:55.095Z,5.40
2018-11-06T05:16:23.949Z,5.40
2018-11-06T05:18:53.934Z,5.30
2018-11-06T05:21:23.552Z,5.30
2018-11-06T05:23:53.737Z,5.30
2018-11-06T05:26:22.613Z,5.30
2018-11-06T05:28:52.268Z,5.30
2018-11-06T05:31:21.222Z,5.20
2018-11-06T05:33:50.662Z,5.20
2018-11-06T05:36:19.569Z,5.10
2018-11-06T05:38:48.714Z,5.10
2018-11-06T05:41:19.765Z,5.00
2018-11-06T05:43:48.625Z,5.00
2018-11-06T05:46:17.673Z,5.00
2018-11-06T05:48:47.238Z,5.10
2018-11-06T05:51:16.163Z,5.10
2018-11-06T05:53:47.267Z,5.10
2018-11-06T05:56:16.773Z,5.00
2018-11-06T05:58:47.214Z,5.10
2018-11-06T06:01:16.589Z,5.10
2018-11-06T06:03:47.579Z,5.10
2018-11-06T06:06:17.209Z,5.10
2018-11-06T06:08:47.431Z,5.00
2018-11-06T06:11:16.797Z,5.00
2018-11-06T06:13:45.671Z,5.00
2018-11-06T06:16:14.617Z,5.20
2018-11-06T06:18:43.709Z,5.40
2018-11-06T06:21:13.507Z,5.50
2018-11-06T06:23:43.133Z,5.50
2018-11-06T06:26:12.079Z,5.40
2018-11-06T06:28:41.901Z,5.50
2018-11-06T06:31:10.877Z,5.50
2018-11-06T06:33:40.343Z,5.40
2018-11-06T06:36:12.900Z,5.40
2018-11-06T06:38:42.738Z,5.40
2018-11-06T06:41:13.364Z,5.40
2018-11-06T06:43:43.209Z,5.30
2018-11-06T06:46:12.607Z,5.20
2018-11-06T06:48:41.660Z,5.20
2018-11-06T06:51:10.784Z,5.30
2018-11-06T06:53:39.772Z,5.40
2018-11-06T06:56:10.334Z,5.70
2018-11-06T06:58:40.193Z,5.70
2018-11-06T07:01:10.115Z,5.90
2018-11-06T07:03:41.220Z,5.90
2018-11-06T07:06:11.450Z,6.00
2018-11-06T07:08:43.798Z,6.00
2018-11-06T07:11:18.021Z,6.10
2018-11-06T07:16:23.821Z,6.20
2018-11-06T07:18:53.332Z,6.40
2018-11-06T07:21:23.049Z,6.40
2018-11-06T07:23:54.676Z,6.50
2018-11-06T07:26:24.820Z,6.70
2018-11-06T07:31:31.187Z,6.90
2018-11-06T07:34:00.156Z,7.00
2018-11-06T07:36:29.117Z,7.10
2018-11-06T07:38:59.179Z,7.20
2018-11-06T07:41:32.454Z,7.30
2018-11-06T07:44:03.803Z,7.40
2018-11-06T07:46:35.113Z,7.40
2018-11-06T07:49:10.717Z,7.60
2018-11-06T07:51:45.566Z,7.60
2018-11-06T07:54:14.964Z,7.70
2018-11-06T07:56:46.098Z,7.80
2018-11-06T07:59:15.781Z,7.90
2018-11-06T08:01:45.943Z,7.90
2018-11-06T08:04:15.782Z,8.00
2018-11-06T08:06:47.611Z,8.10
2018-11-06T08:09:17.605Z,8.20
2018-11-06T08:11:46.605Z,8.30
2018-11-06T08:14:15.757Z,8.40
2018-11-06T08:16:49.479Z,8.50
2018-11-06T08:19:19.978Z,8.60
2018-11-06T08:21:49.616Z,8.70
2018-11-06T08:24:20.232Z,8.70
2018-11-06T08:26:49.487Z,8.80
2018-11-06T08:29:33.047Z,9.00
2018-11-06T08:32:04.765Z,9.00
2018-11-06T08:34:35.391Z,9.20
2018-11-06T08:37:07.362Z,9.40
2018-11-06T08:39:40.021Z,9.40
2018-11-06T08:42:10.949Z,9.60
2018-11-06T08:44:44.287Z,9.60
2018-11-06T08:47:14.316Z,9.60
2018-11-06T08:49:43.297Z,9.70
2018-11-06T08:52:13.777Z,9.80
2018-11-06T08:54:43.609Z,10.10
2018-11-06T08:57:14.329Z,10.20
2018-11-06T08:59:44.438Z,10.20
2018-11-06T09:02:24.452Z,10.20
2018-11-06T09:04:57.231Z,10.40
2018-11-06T09:07:27.536Z,10.50
2018-11-06T09:09:59.216Z,10.70
2018-11-06T09:12:29.932Z,10.70
2018-11-06T09:15:00.845Z,10.80
2018-11-06T09:17:30.987Z,10.90
2018-11-06T09:20:03.489Z,11.00
2018-11-06T09:22:34.792Z,11.30
2018-11-06T09:25:05.651Z,11.50
2018-11-06T09:27:37.304Z,11.60
2018-11-06T09:30:20.117Z,12.00
2018-11-06T09:32:50.783Z,12.20
2018-11-06T09:35:21.925Z,12.10
2018-11-06T09:40:40.323Z,12.10
2018-11-06T09:43:11.495Z,11.70
2018-11-06T09:45:44.731Z,11.60
2018-11-06T09:48:15.683Z,11.70
2018-11-06T09:50:52.337Z,12.10
2018-11-06T09:53:23.450Z,12.10
2018-11-06T09:55:56.395Z,12.40
2018-11-06T09:58:27.303Z,12.40
2018-11-06T10:00:57.780Z,12.60
2018-11-06T10:03:28.233Z,13.10
2018-11-06T10:06:14.261Z,13.10
2018-11-06T10:08:44.679Z,13.00
2018-11-06T10:11:15.718Z,13.20
2018-11-06T10:13:48.691Z,13.40
2018-11-06T10:16:23.333Z,13.80
2018-11-06T10:18:56.164Z,14.20
2018-11-06T10:21:25.826Z,14.20
2018-11-06T10:23:56.689Z,14.00
2018-11-06T10:26:28.832Z,13.60
2018-11-06T10:29:05.077Z,13.40
2018-11-06T10:31:38.173Z,13.40
2018-11-06T10:34:08.194Z,13.60
2018-11-06T10:36:39.584Z,13.90
2018-11-06T10:39:17.155Z,14.20
2018-11-06T10:41:47.313Z,14.30
2018-11-06T10:44:19.547Z,14.60
2018-11-06T10:46:51.523Z,14.90
2018-11-06T10:49:26.678Z,15.40
2018-11-06T10:51:59.822Z,15.50
2018-11-06T10:54:31.686Z,15.50
2018-11-06T10:57:07.753Z,15.40
2018-11-06T10:59:39.633Z,15.00
2018-11-06T11:02:15.357Z,14.90
2018-11-06T11:04:46.458Z,15.00
2018-11-06T11:07:38.165Z,15.10
2018-11-06T11:10:10.263Z,15.20
2018-11-06T11:12:42.256Z,15.10
2018-11-06T11:15:19.662Z,15.30
2018-11-06T11:17:49.245Z,15.20
2018-11-06T11:20:20.394Z,15.30
2018-11-06T11:22:49.648Z,15.30
2018-11-06T11:25:19.178Z,15.60
2018-11-06T11:27:52.601Z,15.90
2018-11-06T11:30:23.864Z,16.20
2018-11-06T11:32:54.495Z,17.00
2018-11-06T11:35:28.742Z,17.50
2018-11-06T11:38:09.606Z,17.70
2018-11-06T11:40:43.569Z,18.00
2018-11-06T11:43:14.370Z,17.90
2018-11-06T11:45:44.231Z,17.70
2018-11-06T11:48:14.002Z,17.40
2018-11-06T11:50:45.744Z,17.40
2018-11-06T11:53:16.928Z,17.10
2018-11-06T11:55:49.281Z,16.90
2018-11-06T11:58:21.142Z,16.70
2018-11-06T12:00:54.672Z,16.40
2018-11-06T12:06:05.288Z,16.00
2018-11-06T12:08:37.018Z,15.80
2018-11-06T12:11:06.449Z,15.60
2018-11-06T12:13:42.255Z,15.60
2018-11-06T12:16:15.150Z,15.50
2018-11-06T12:18:45.057Z,15.40
2018-11-06T12:21:18.024Z,15.20
2018-11-06T12:23:49.217Z,15.20
2018-11-06T12:26:22.313Z,15.30
2018-11-06T12:28:53.624Z,15.40
2018-11-06T12:31:27.522Z,15.40
2018-11-06T12:34:01.950Z,15.40
2018-11-06T12:36:32.138Z,15.30
2018-11-06T12:39:04.648Z,15.20
2018-11-06T12:41:35.388Z,15.30
2018-11-06T12:44:08.246Z,15.10
2018-11-06T12:46:43.016Z,15.10
2018-11-06T12:49:13.504Z,15.20
2018-11-06T12:51:43.519Z,15.30
2018-11-06T12:54:14.189Z,15.30
2018-11-06T12:56:44.268Z,15.40
2018-11-06T12:59:15.216Z,15.50
2018-11-06T13:01:45.749Z,15.50
2018-11-06T13:04:15.265Z,15.60
2018-11-06T13:06:44.906Z,15.60
2018-11-06T13:09:23.703Z,15.60
2018-11-06T13:11:54.590Z,15.70
2018-11-06T13:14:27.443Z,15.60
2018-11-06T13:16:57.015Z,15.50
2018-11-06T13:19:26.219Z,15.50
2018-11-06T13:21:58.114Z,15.50
2018-11-06T13:24:27.832Z,15.50
2018-11-06T13:26:57.287Z,15.50
2018-11-06T13:29:28.155Z,15.50
2018-11-06T13:31:59.044Z,15.50
2018-11-06T13:34:30.724Z,15.50
2018-11-06T13:37:02.193Z,15.50
2018-11-06T13:39:39.129Z,15.40
2018-11-06T13:42:10.259Z,15.40
2018-11-06T13:44:40.601Z,15.40
2018-11-06T13:47:20.664Z,15.30
2018-11-06T13:49:51.587Z,15.30
2018-11-06T13:52:26.595Z,15.30
2018-11-06T13:54:59.220Z,15.20
2018-11-06T13:57:34.934Z,15.20
2018-11-06T14:00:16.347Z,15.10
2018-11-06T14:02:46.380Z,15.00
2018-11-06T14:08:08.042Z,14.80
2018-11-06T14:10:41.244Z,14.70
2018-11-06T14:13:16.283Z,14.70
2018-11-06T14:15:50.694Z,14.60
2018-11-06T14:18:23.985Z,14.50
2018-11-06T14:20:56.139Z,14.40
2018-11-06T14:23:26.713Z,14.40
2018-11-06T14:25:58.716Z,14.30
2018-11-06T14:28:31.635Z,14.20
2018-11-06T14:31:05.622Z,14.20
2018-11-06T14:33:34.576Z,14.10
2018-11-06T14:36:10.612Z,14.00
2018-11-06T14:38:41.646Z,13.90
2018-11-06T14:41:12.672Z,13.80
2018-11-06T14:43:43.149Z,13.70
2018-11-06T14:46:15.233Z,13.60
2018-11-06T14:48:45.331Z,13.60
2018-11-06T14:51:17.984Z,13.50
2018-11-06T14:53:49.066Z,13.50
2018-11-06T14:56:21.600Z,13.40
2018-11-06T14:58:52.005Z,13.30
2018-11-06T15:01:23.306Z,13.20
2018-11-06T15:03:54.725Z,13.20
2018-11-06T15:06:27.136Z,13.20
2018-11-06T15:08:59.635Z,13.10
2018-11-06T15:11:31.669Z,13.10
2018-11-06T15:16:38.258Z,13.00
2018-11-06T15:19:12.791Z,12.90
2018-11-06T15:21:47.051Z,12.90
2018-11-06T15:24:19.956Z,12.80
2018-11-06T15:26:56.704Z,12.80
2018-11-06T15:29:26.968Z,12.70
2018-11-06T15:32:03.859Z,12.60
2018-11-06T15:37:15.384Z,12.50
2018-11-06T15:44:39.806Z,12.50
2018-11-06T15:47:10.518Z,12.40
2018-11-06T15:49:46.784Z,12.30
2018-11-06T15:52:17.744Z,12.30
2018-11-06T15:54:51.612Z,12.20
2018-11-06T15:57:23.763Z,12.10
2018-11-06T16:00:01.824Z,12.00
2018-11-06T16:02:33.348Z,11.90
2018-11-06T16:05:03.976Z,11.90
2018-11-06T16:07:35.234Z,11.80
2018-11-06T16:10:08.784Z,11.80
2018-11-06T16:12:44.770Z,11.80
2018-11-06T16:15:16.776Z,11.80
2018-11-06T16:17:52.293Z,11.70
2018-11-06T16:20:24.952Z,11.80
2018-11-06T16:22:57.360Z,11.80
2018-11-06T16:25:31.056Z,11.80
2018-11-06T16:28:10.953Z,11.80
2018-11-06T16:30:56.699Z,11.80
2018-11-06T16:33:29.973Z,11.70
2018-11-06T16:36:04.372Z,11.70
2018-11-06T16:38:35.693Z,11.60
2018-11-06T16:41:10.858Z,11.60
2018-11-06T16:43:43.322Z,11.60
2018-11-06T16:46:14.952Z,11.60
2018-11-06T16:49:05.462Z,11.60
2018-11-06T16:51:38.090Z,11.60
2018-11-06T16:54:13.556Z,11.50
2018-11-06T16:56:45.521Z,11.50
2018-11-06T16:59:17.784Z,11.40
2018-11-06T17:01:50.185Z,11.40
2018-11-06T17:04:24.483Z,11.40
2018-11-06T17:06:58.831Z,11.40
2018-11-06T17:09:33.227Z,11.40
2018-11-06T17:12:03.680Z,11.40
2018-11-06T17:14:54.717Z,11.30
2018-11-06T17:17:31.400Z,11.40
2018-11-06T17:25:03.717Z,11.40
2018-11-06T17:27:33.313Z,11.30
2018-11-06T17:30:05.077Z,11.40
2018-11-06T17:32:35.697Z,11.40
2018-11-06T17:35:08.148Z,11.40
2018-11-06T17:37:40.205Z,11.30
2018-11-06T17:40:13.162Z,11.30
2018-11-06T17:42:43.479Z,11.30
2018-11-06T17:45:15.804Z,11.30
2018-11-06T17:47:46.296Z,11.30
2018-11-06T17:50:16.752Z,11.30
2018-11-06T17:52:49.158Z,11.20
2018-11-06T17:55:26.763Z,11.10
2018-11-06T18:01:36.325Z,11.00
2018-11-06T18:04:08.783Z,10.90
2018-11-06T18:06:41.136Z,10.90
2018-11-06T18:09:13.400Z,10.80
2018-11-06T18:11:47.176Z,10.70
2018-11-06T18:14:19.602Z,10.60
2018-11-06T18:16:50.180Z,10.70
2018-11-06T18:19:21.282Z,10.60
2018-11-06T18:21:53.919Z,10.60
2018-11-06T18:24:40.968Z,10.60
2018-11-06T18:27:12.787Z,10.50
2018-11-06T18:29:45.033Z,10.30
2018-11-06T18:32:14.496Z,10.30
2018-11-06T18:34:46.437Z,10.30
2018-11-06T18:37:17.190Z,10.30
2018-11-06T18:39:51.258Z,10.20
2018-11-06T18:42:23.192Z,10.20
2018-11-06T18:44:58.588Z,10.20
2018-11-06T18:47:30.922Z,10.20
2018-11-06T18:50:01.165Z,10.10
2018-11-06T18:52:33.194Z,10.00
2018-11-06T18:55:04.361Z,10.00
2018-11-06T18:57:48.117Z,9.90
2018-11-06T19:00:24.197Z,9.90
2018-11-06T19:02:57.199Z,9.90
2018-11-06T19:05:29.828Z,10.00
2018-11-06T19:08:00.455Z,9.90
2018-11-06T19:10:31.610Z,9.90
2018-11-06T19:13:06.056Z,9.80
2018-11-06T19:15:35.765Z,9.80
2018-11-06T19:18:05.389Z,9.80
2018-11-06T19:20:38.698Z,9.70
2018-11-06T19:23:13.414Z,9.60
2018-11-06T19:25:43.583Z,9.60
2018-11-06T19:28:13.701Z,9.60
2018-11-06T19:30:50.706Z,9.60
2018-11-06T19:33:22.427Z,9.50
2018-11-06T19:35:52.967Z,9.60
2018-11-06T19:38:24.599Z,9.60
2018-11-06T19:40:55.696Z,9.50
2018-11-06T19:43:25.925Z,9.40
2018-11-06T19:45:56.217Z,9.40
2018-11-06T19:48:30.495Z,9.40
2018-11-06T19:51:04.790Z,9.40
2018-11-06T19:53:36.171Z,9.40
2018-11-06T19:56:07.377Z,9.40
2018-11-06T19:58:38.066Z,9.40
2018-11-06T20:01:10.807Z,9.30
2018-11-06T20:03:42.033Z,9.30
2018-11-06T20:06:15.205Z,9.30
2018-11-06T20:11:37.900Z,9.30
2018-11-06T20:14:09.417Z,9.30
2018-11-06T20:16:40.433Z,9.30
2018-11-06T20:19:11.479Z,9.30
2018-11-06T20:21:41.420Z,9.30
2018-11-06T20:24:18.729Z,9.30
2018-11-06T20:26:50.604Z,9.30
2018-11-06T20:29:25.491Z,9.30
2018-11-06T20:31:59.014Z,9.30
2018-11-06T20:34:31.248Z,9.20
2018-11-06T20:37:02.830Z,9.20
2018-11-06T20:39:34.954Z,9.10
2018-11-06T20:42:11.131Z,9.10
2018-11-06T20:44:43.325Z,9.00
2018-11-06T20:47:17.359Z,9.00
2018-11-06T20:49:51.718Z,8.90
2018-11-06T20:52:23.251Z,8.80
2018-11-06T20:54:54.284Z,8.80
2018-11-06T20:57:23.271Z,8.80
2018-11-06T20:59:56.646Z,8.90
2018-11-06T21:02:28.305Z,8.90
2018-11-06T21:05:00.683Z,8.80
2018-11-06T21:07:32.587Z,8.70
2018-11-06T21:10:03.302Z,8.70
2018-11-06T21:12:33.758Z,8.80
2018-11-06T21:15:03.827Z,8.70
2018-11-06T21:21:11.690Z,8.50
2018-11-06T21:23:45.195Z,8.70
2018-11-06T21:26:14.405Z,8.80
2018-11-06T21:28:43.982Z,9.00
2018-11-06T21:31:14.865Z,9.00
2018-11-06T21:33:44.285Z,9.10
2018-11-06T21:36:13.237Z,9.10
2018-11-06T21:38:42.170Z,9.00
2018-11-06T21:41:12.443Z,9.10
2018-11-06T21:43:42.712Z,9.10
2018-11-06T21:46:14.575Z,9.10
2018-11-06T21:48:44.088Z,9.00
2018-11-06T21:51:13.178Z,8.90
2018-11-06T21:53:50.220Z,9.00
2018-11-06T21:56:21.428Z,9.00
2018-11-06T21:58:53.808Z,9.00
2018-11-06T22:01:25.075Z,9.10
2018-11-06T22:03:54.479Z,9.00
2018-11-06T22:06:24.209Z,9.00
2018-11-06T22:08:55.747Z,8.90
2018-11-06T22:11:29.205Z,8.80
2018-11-06T22:14:01.074Z,8.80
2018-11-06T22:16:30.188Z,8.80
2018-11-06T22:18:59.312Z,8.80
2018-11-06T22:21:28.831Z,8.70
2018-11-06T22:23:58.571Z,8.70
2018-11-06T22:26:30.211Z,8.60
2018-11-06T22:28:59.686Z,8.50
2018-11-06T22:31:31.038Z,8.60
2018-11-06T22:34:04.624Z,8.60
2018-11-06T22:36:34.142Z,8.60
2018-11-06T22:39:05.332Z,8.60
2018-11-06T22:41:34.865Z,8.60
2018-11-06T22:44:03.760Z,8.60
2018-11-06T22:46:35.746Z,8.60
2018-11-06T22:49:05.971Z,8.60
2018-11-06T22:51:35.128Z,8.60
2018-11-06T22:54:05.074Z,8.60
2018-11-06T22:56:37.105Z,8.60
2018-11-06T22:59:06.306Z,8.60
2018-11-06T23:01:35.179Z,8.60
2018-11-06T23:04:04.528Z,8.50
2018-11-06T23:06:38.252Z,8.50
2018-11-06T23:09:10.386Z,8.40
2018-11-06T23:11:41.814Z,8.50
2018-11-06T23:14:15.752Z,8.30
2018-11-06T23:16:45.442Z,8.30
2018-11-06T23:19:14.628Z,8.20
2018-11-06T23:21:43.573Z,8.10
2018-11-06T23:24:13.413Z,8.20
2018-11-06T23:26:44.923Z,8.20
2018-11-06T23:29:13.906Z,8.40
2018-11-06T23:31:45.045Z,8.60
2018-11-06T23:34:14.706Z,8.70
2018-11-06T23:36:47.613Z,8.70
2018-11-06T23:39:16.578Z,8.70
2018-11-06T23:41:45.506Z,8.80
2018-11-06T23:44:14.372Z,8.80
2018-11-06T23:46:43.283Z,8.80
2018-11-06T23:49:13.466Z,9.10
2018-11-06T23:51:43.665Z,9.30
2018-11-06T23:54:12.575Z,9.70
2018-11-06T23:56:43.127Z,9.90
2018-11-06T23:59:12.067Z,10.00
